createdAt,value
2018-01-23T00:01:31.703Z,73.63
2018-01-23T00:04:02.883Z,73.55
2018-01-23T00:06:33.986Z,73.44
2018-01-23T00:09:05.132Z,73.10
2018-01-23T00:11:36.357Z,73.10
2018-01-23T00:14:07.422Z,73.08
2018-01-23T00:16:38.984Z,73.16
2018-01-23T00:19:10.028Z,73.23
2018-01-23T00:21:41.113Z,73.18
2018-01-23T00:24:12.169Z,73.28
2018-01-23T00:26:43.284Z,73.48
2018-01-23T00:29:14.326Z,73.38
2018-01-23T00:31:45.641Z,73.48
2018-01-23T00:34:16.683Z,73.37
2018-01-23T00:36:47.799Z,72.84
2018-01-23T00:39:18.876Z,72.34
2018-01-23T00:41:49.999Z,72.04
2018-01-23T00:44:21.037Z,71.61
2018-01-23T00:46:52.072Z,71.12
2018-01-23T00:49:23.860Z,70.71
2018-01-23T00:51:54.939Z,70.84
2018-01-23T00:54:26.062Z,70.96
2018-01-23T00:56:57.136Z,70.99
2018-01-23T00:59:28.222Z,71.08
2018-01-23T01:01:59.285Z,70.90
2018-01-23T01:04:30.402Z,70.57
2018-01-23T01:07:01.532Z,70.09
2018-01-23T01:09:32.577Z,69.72
2018-01-23T01:12:03.692Z,69.75
2018-01-23T01:14:34.757Z,69.43
2018-01-23T01:17:06.045Z,69.50
2018-01-23T01:19:37.093Z,69.53
2018-01-23T01:22:08.213Z,69.68
2018-01-23T01:24:40.007Z,69.94
2018-01-23T01:27:11.094Z,70.39
2018-01-23T01:29:42.176Z,70.97
2018-01-23T01:32:13.238Z,70.89
2018-01-23T01:34:44.332Z,70.68
2018-01-23T01:37:15.429Z,70.53
2018-01-23T01:39:46.581Z,70.39
2018-01-23T01:42:17.624Z,70.38
2018-01-23T01:44:48.716Z,70.58
2018-01-23T01:47:19.777Z,70.94
2018-01-23T01:49:50.831Z,71.14
2018-01-23T01:52:21.877Z,71.25
2018-01-23T01:54:59.933Z,71.08
2018-01-23T01:57:31.012Z,71.19
2018-01-23T02:00:02.105Z,71.33
2018-01-23T02:02:33.203Z,71.29
2018-01-23T02:05:04.263Z,71.16
2018-01-23T02:07:35.347Z,71.04
2018-01-23T02:10:06.411Z,70.90
2018-01-23T02:12:37.462Z,70.79
2018-01-23T02:15:08.525Z,70.60
2018-01-23T02:17:39.631Z,70.42
2018-01-23T02:20:10.723Z,70.52
2018-01-23T02:22:41.814Z,70.62
2018-01-23T02:25:12.876Z,70.61
2018-01-23T02:27:43.977Z,70.54
2018-01-23T02:30:15.836Z,70.45
2018-01-23T02:32:46.931Z,71.06
2018-01-23T02:35:18.002Z,71.51
2018-01-23T02:37:49.104Z,71.67
2018-01-23T02:40:20.194Z,72.02
2018-01-23T02:42:51.268Z,72.02
2018-01-23T02:45:22.360Z,72.20
2018-01-23T02:47:53.402Z,72.29
2018-01-23T02:50:24.495Z,72.47
2018-01-23T02:52:55.529Z,72.52
2018-01-23T02:55:26.619Z,72.03
2018-01-23T02:57:57.729Z,71.65
2018-01-23T03:00:28.820Z,71.38
2018-01-23T03:02:59.911Z,71.53
2018-01-23T03:05:30.930Z,71.61
2018-01-23T03:08:02.028Z,71.56
2018-01-23T03:10:33.093Z,71.46
2018-01-23T03:13:04.192Z,71.28
2018-01-23T03:15:35.291Z,71.07
2018-01-23T03:18:06.344Z,70.90
2018-01-23T03:20:37.414Z,70.69
2018-01-23T03:23:08.512Z,70.69
2018-01-23T03:25:39.623Z,70.94
2018-01-23T03:28:10.665Z,70.90
2018-01-23T03:30:41.715Z,71.01
2018-01-23T03:33:12.782Z,71.02
2018-01-23T03:35:43.816Z,71.22
2018-01-23T03:38:14.897Z,71.42
2018-01-23T03:40:45.961Z,71.72
2018-01-23T03:43:17.050Z,71.87
2018-01-23T03:45:48.126Z,71.75
2018-01-23T03:48:20.366Z,71.93
2018-01-23T03:50:51.918Z,72.21
2018-01-23T03:53:23.022Z,72.23
2018-01-23T03:55:54.051Z,72.34
2018-01-23T03:58:25.115Z,72.18
2018-01-23T04:00:56.155Z,72.15
2018-01-23T04:03:27.256Z,71.89
2018-01-23T04:05:58.353Z,71.91
2018-01-23T04:08:29.453Z,71.89
2018-01-23T04:11:00.493Z,71.86
2018-01-23T04:13:31.564Z,71.80
2018-01-23T04:16:02.622Z,71.60
2018-01-23T04:18:33.699Z,71.50
2018-01-23T04:21:04.778Z,71.48
2018-01-23T04:23:35.893Z,71.42
2018-01-23T04:26:06.978Z,71.11
2018-01-23T04:28:38.079Z,71.03
2018-01-23T04:31:09.109Z,71.00
2018-01-23T04:33:40.236Z,70.93
2018-01-23T04:36:11.308Z,70.76
2018-01-23T04:38:42.375Z,70.53
2018-01-23T04:41:13.451Z,70.53
2018-01-23T04:43:44.553Z,70.70
2018-01-23T04:46:15.632Z,70.77
2018-01-23T04:48:46.823Z,70.89
2018-01-23T04:51:17.932Z,71.04
2018-01-23T04:53:49.126Z,71.22
2018-01-23T04:56:20.148Z,71.20
2018-01-23T04:58:51.235Z,71.27
2018-01-23T05:01:22.364Z,71.56
2018-01-23T05:03:53.419Z,71.72
2018-01-23T05:06:24.499Z,71.55
2018-01-23T05:08:55.569Z,71.65
2018-01-23T05:11:26.631Z,71.89
2018-01-23T05:13:57.755Z,71.98
2018-01-23T05:16:28.802Z,72.04
2018-01-23T05:18:59.924Z,72.17
2018-01-23T05:21:31.033Z,72.27
2018-01-23T05:24:02.110Z,72.35
2018-01-23T05:26:33.205Z,72.32
2018-01-23T05:29:04.276Z,72.20
2018-01-23T05:31:35.382Z,72.15
2018-01-23T05:34:06.403Z,71.94
2018-01-23T05:36:38.637Z,71.96
2018-01-23T05:39:09.730Z,71.92
2018-01-23T05:41:40.797Z,71.78
2018-01-23T05:44:11.826Z,71.84
2018-01-23T05:46:42.899Z,71.63
2018-01-23T05:49:13.984Z,71.73
2018-01-23T05:51:45.056Z,71.61
2018-01-23T05:54:16.142Z,71.42
2018-01-23T05:56:47.304Z,71.27
2018-01-23T05:59:18.368Z,71.13
2018-01-23T06:01:49.485Z,70.81
2018-01-23T06:04:20.529Z,70.57
2018-01-23T06:06:51.609Z,70.49
2018-01-23T06:09:22.925Z,70.27
2018-01-23T06:11:53.980Z,70.30
2018-01-23T06:14:25.104Z,70.14
2018-01-23T06:16:56.132Z,70.22
2018-01-23T06:19:27.219Z,70.27
2018-01-23T06:21:58.360Z,70.11
2018-01-23T06:24:29.428Z,70.10
2018-01-23T06:27:00.506Z,70.08
2018-01-23T06:29:31.579Z,69.81
2018-01-23T06:32:02.655Z,69.72
2018-01-23T06:34:33.775Z,69.69
2018-01-23T06:37:04.883Z,69.58
2018-01-23T06:39:35.951Z,69.31
2018-01-23T06:42:07.019Z,68.92
2018-01-23T06:44:38.073Z,68.79
2018-01-23T06:47:09.184Z,68.78
2018-01-23T06:49:40.273Z,68.73
2018-01-23T06:52:11.332Z,69.21
2018-01-23T06:54:42.385Z,69.53
2018-01-23T06:57:13.470Z,69.49
2018-01-23T06:59:44.748Z,69.68
2018-01-23T07:02:15.800Z,69.95
2018-01-23T07:04:46.839Z,69.86
2018-01-23T07:07:17.941Z,69.87
2018-01-23T07:09:48.993Z,69.61
2018-01-23T07:12:20.055Z,69.70
2018-01-23T07:14:51.130Z,69.70
2018-01-23T07:17:22.245Z,69.64
2018-01-23T07:19:53.315Z,69.80
2018-01-23T07:22:24.391Z,69.59
2018-01-23T07:24:55.463Z,69.45
2018-01-23T07:27:26.543Z,69.31
2018-01-23T07:29:57.643Z,69.54
2018-01-23T07:32:28.741Z,69.75
2018-01-23T07:34:59.792Z,69.79
2018-01-23T07:37:30.830Z,70.12
2018-01-23T07:42:42.889Z,70.41
2018-01-23T07:45:13.959Z,69.62
2018-01-23T07:47:45.051Z,69.18
2018-01-23T07:50:16.138Z,68.67
2018-01-23T07:52:47.224Z,68.42
2018-01-23T07:55:18.317Z,68.19
2018-01-23T07:57:49.413Z,68.45
2018-01-23T08:00:20.520Z,68.86
2018-01-23T08:02:51.614Z,68.93
2018-01-23T08:05:22.692Z,69.08
2018-01-23T08:07:53.734Z,69.37
2018-01-23T08:10:24.843Z,69.41
2018-01-23T08:12:55.899Z,69.07
2018-01-23T08:15:27.009Z,68.84
2018-01-23T08:17:58.118Z,68.80
2018-01-23T08:20:29.891Z,68.69
2018-01-23T08:23:00.988Z,68.45
2018-01-23T08:25:32.108Z,68.31
2018-01-23T08:28:03.158Z,68.32
2018-01-23T08:30:34.306Z,68.47
2018-01-23T08:33:05.353Z,68.42
2018-01-23T08:35:36.398Z,68.26
2018-01-23T08:38:07.468Z,67.66
2018-01-23T08:40:38.564Z,67.22
2018-01-23T08:43:09.635Z,67.08
2018-01-23T08:45:40.689Z,67.14
2018-01-23T08:48:11.739Z,67.14
2018-01-23T08:50:42.830Z,66.91
2018-01-23T08:53:13.939Z,66.66
2018-01-23T08:55:45.039Z,66.31
2018-01-23T08:58:16.134Z,65.95
2018-01-23T09:00:47.234Z,65.71
2018-01-23T09:03:18.314Z,65.78
2018-01-23T09:05:49.398Z,65.44
2018-01-23T09:08:20.495Z,65.28
2018-01-23T09:10:51.574Z,65.15
2018-01-23T09:13:22.616Z,64.67
2018-01-23T09:15:53.702Z,64.06
2018-01-23T09:18:24.833Z,63.81
2018-01-23T09:20:55.893Z,63.17
2018-01-23T09:23:26.968Z,62.88
2018-01-23T09:25:58.037Z,62.37
2018-01-23T09:28:29.105Z,62.08
2018-01-23T09:31:00.213Z,61.87
2018-01-23T09:33:31.325Z,61.66
2018-01-23T09:36:02.390Z,61.34
2018-01-23T09:38:33.489Z,61.30
2018-01-23T09:41:04.594Z,60.90
2018-01-23T09:43:35.671Z,60.83
2018-01-23T09:46:06.749Z,60.92
2018-01-23T09:48:37.810Z,60.79
2018-01-23T09:51:08.911Z,60.40
2018-01-23T09:53:40.010Z,60.24
2018-01-23T09:56:11.077Z,60.25
2018-01-23T09:58:42.634Z,60.28
2018-01-23T10:01:13.677Z,60.04
2018-01-23T10:03:45.084Z,59.23
2018-01-23T10:06:16.217Z,59.06
2018-01-23T10:08:47.332Z,58.84
2018-01-23T10:11:18.396Z,58.95
2018-01-23T10:13:49.448Z,58.44
2018-01-23T10:16:20.544Z,57.76
2018-01-23T10:18:51.602Z,57.45
2018-01-23T10:21:22.806Z,57.08
2018-01-23T10:23:53.931Z,56.72
2018-01-23T10:26:24.971Z,56.29
2018-01-23T10:28:56.079Z,56.87
2018-01-23T10:31:27.132Z,57.18
2018-01-23T10:33:58.176Z,57.21
2018-01-23T10:36:29.437Z,57.13
2018-01-23T10:39:00.507Z,57.06
2018-01-23T10:41:31.569Z,56.49
2018-01-23T10:44:02.660Z,56.32
2018-01-23T10:46:33.746Z,56.26
2018-01-23T10:49:05.059Z,55.67
2018-01-23T10:51:36.156Z,55.37
2018-01-23T10:54:07.234Z,55.41
2018-01-23T10:56:38.317Z,55.32
2018-01-23T10:59:09.374Z,54.70
2018-01-23T11:01:40.515Z,55.29
2018-01-23T11:04:11.610Z,55.33
2018-01-23T11:06:42.727Z,54.97
2018-01-23T11:09:13.791Z,54.23
2018-01-23T11:11:44.963Z,54.10
2018-01-23T11:14:16.013Z,53.74
2018-01-23T11:16:47.126Z,53.81
2018-01-23T11:19:18.239Z,53.53
2018-01-23T11:21:49.301Z,52.97
2018-01-23T11:24:20.540Z,53.30
2018-01-23T11:26:52.306Z,53.79
2018-01-23T11:29:23.329Z,53.77
2018-01-23T11:31:54.394Z,53.92
2018-01-23T11:34:25.434Z,54.11
2018-01-23T11:36:56.540Z,54.19
2018-01-23T11:39:28.388Z,54.02
2018-01-23T11:41:59.468Z,53.88
2018-01-23T11:44:30.516Z,53.87
2018-01-23T11:47:01.627Z,53.74
2018-01-23T11:49:32.690Z,53.96
2018-01-23T11:52:03.812Z,54.17
2018-01-23T11:54:34.881Z,54.57
2018-01-23T11:57:05.941Z,54.36
2018-01-23T11:59:36.994Z,54.02
2018-01-23T12:02:08.076Z,54.00
2018-01-23T12:04:40.443Z,53.88
2018-01-23T12:07:11.528Z,53.70
2018-01-23T12:09:42.788Z,53.82
2018-01-23T12:12:13.838Z,54.06
2018-01-23T12:14:45.105Z,54.15
2018-01-23T12:17:16.185Z,54.16
2018-01-23T12:19:47.305Z,54.24
2018-01-23T12:22:18.378Z,54.71
2018-01-23T12:24:49.441Z,54.73
2018-01-23T12:27:20.717Z,54.86
2018-01-23T12:29:51.754Z,55.09
2018-01-23T12:32:22.902Z,54.97
2018-01-23T12:34:53.980Z,54.43
2018-01-23T12:37:32.142Z,54.41
2018-01-23T12:40:03.260Z,54.68
2018-01-23T12:42:34.650Z,54.56
2018-01-23T12:45:05.727Z,54.59
2018-01-23T12:47:36.771Z,54.50
2018-01-23T12:50:07.879Z,54.48
2018-01-23T12:52:38.962Z,54.63
2018-01-23T12:55:10.062Z,54.75
2018-01-23T12:57:41.163Z,54.88
2018-01-23T13:00:12.203Z,54.61
2018-01-23T13:02:43.305Z,54.43
2018-01-23T13:05:14.393Z,55.00
2018-01-23T13:07:45.560Z,55.24
2018-01-23T13:10:16.646Z,55.38
2018-01-23T13:12:47.898Z,55.81
2018-01-23T13:15:18.991Z,55.87
2018-01-23T13:17:50.057Z,56.09
2018-01-23T13:20:21.156Z,56.12
2018-01-23T13:22:52.220Z,56.32
2018-01-23T13:25:23.324Z,56.12
2018-01-23T13:27:54.427Z,55.96
2018-01-23T13:30:25.486Z,55.81
2018-01-23T13:32:56.577Z,55.76
2018-01-23T13:35:27.648Z,55.85
2018-01-23T13:37:58.697Z,55.85
2018-01-23T13:40:29.763Z,55.92
2018-01-23T13:43:00.845Z,55.29
2018-01-23T13:45:31.944Z,54.81
2018-01-23T13:48:03.027Z,54.25
2018-01-23T13:50:34.127Z,54.16
2018-01-23T13:53:05.249Z,53.78
2018-01-23T13:55:36.336Z,54.30
2018-01-23T13:58:07.390Z,54.43
2018-01-23T14:00:38.463Z,54.46
2018-01-23T14:03:09.539Z,54.59
2018-01-23T14:05:40.578Z,54.29
2018-01-23T14:08:11.697Z,54.09
2018-01-23T14:10:42.786Z,54.02
2018-01-23T14:13:13.896Z,53.98
2018-01-23T14:15:45.010Z,54.61
2018-01-23T14:18:16.157Z,55.10
2018-01-23T14:20:47.244Z,55.87
2018-01-23T14:23:18.294Z,56.13
2018-01-23T14:25:49.371Z,56.17
2018-01-23T14:28:20.441Z,55.75
2018-01-23T14:30:51.538Z,55.40
2018-01-23T14:33:22.604Z,55.62
2018-01-23T14:35:53.676Z,55.75
2018-01-23T14:38:24.752Z,55.85
2018-01-23T14:40:55.840Z,56.01
2018-01-23T14:43:26.910Z,56.25
2018-01-23T14:45:57.990Z,56.55
2018-01-23T14:48:29.049Z,56.81
2018-01-23T14:51:00.164Z,57.29
2018-01-23T14:53:31.243Z,57.88
2018-01-23T14:56:02.357Z,58.02
2018-01-23T14:58:33.427Z,58.23
2018-01-23T15:01:04.468Z,58.17
2018-01-23T15:03:35.595Z,58.35
2018-01-23T15:06:06.643Z,58.37
2018-01-23T15:08:37.719Z,58.53
2018-01-23T15:11:08.801Z,58.58
2018-01-23T15:13:39.871Z,58.73
2018-01-23T15:16:10.981Z,58.80
2018-01-23T15:18:42.072Z,59.03
2018-01-23T15:21:13.287Z,59.35
2018-01-23T15:23:44.332Z,59.63
2018-01-23T15:26:15.395Z,59.83
2018-01-23T15:28:46.520Z,59.84
2018-01-23T15:31:17.601Z,59.91
2018-01-23T15:33:48.648Z,59.89
2018-01-23T15:36:19.778Z,60.12
2018-01-23T15:38:50.824Z,60.40
2018-01-23T15:41:21.900Z,60.50
2018-01-23T15:43:52.998Z,60.56
2018-01-23T15:46:24.066Z,60.80
2018-01-23T15:48:55.154Z,60.94
2018-01-23T15:51:26.269Z,61.20
2018-01-23T15:53:57.367Z,61.25
2018-01-23T15:56:28.452Z,61.59
2018-01-23T15:58:59.562Z,61.78
2018-01-23T16:01:30.598Z,61.92
2018-01-23T16:04:01.722Z,62.21
2018-01-23T16:06:32.841Z,62.29
2018-01-23T16:09:03.989Z,62.29
2018-01-23T16:11:35.041Z,62.13
2018-01-23T16:14:06.097Z,62.20
2018-01-23T16:16:37.201Z,62.39
2018-01-23T16:19:08.316Z,62.78
2018-01-23T16:21:40.138Z,63.34
2018-01-23T16:24:11.200Z,63.56
2018-01-23T16:26:42.534Z,63.62
2018-01-23T16:29:13.621Z,63.55
2018-01-23T16:31:44.693Z,63.45
2018-01-23T16:34:15.750Z,63.18
2018-01-23T16:36:46.831Z,63.04
2018-01-23T16:39:17.902Z,63.06
2018-01-23T16:41:49.006Z,62.98
2018-01-23T16:44:20.070Z,63.06
2018-01-23T16:46:51.186Z,63.02
2018-01-23T16:49:22.265Z,63.00
2018-01-23T16:51:53.336Z,63.07
2018-01-23T16:54:24.407Z,63.36
2018-01-23T16:56:55.522Z,63.48
2018-01-23T16:59:26.686Z,63.57
2018-01-23T17:01:57.819Z,63.64
2018-01-23T17:04:28.897Z,63.61
2018-01-23T17:06:59.965Z,63.66
2018-01-23T17:09:31.097Z,64.02
2018-01-23T17:12:02.130Z,63.87
2018-01-23T17:14:33.190Z,63.84
2018-01-23T17:17:04.242Z,63.89
2018-01-23T17:19:35.344Z,63.65
2018-01-23T17:22:06.416Z,63.59
2018-01-23T17:24:37.536Z,63.62
2018-01-23T17:27:08.680Z,63.57
2018-01-23T17:29:39.772Z,63.50
2018-01-23T17:32:10.881Z,63.10
2018-01-23T17:34:41.918Z,62.33
2018-01-23T17:37:12.993Z,62.09
2018-01-23T17:39:44.078Z,61.96
2018-01-23T17:42:15.160Z,61.67
2018-01-23T17:44:46.291Z,61.53
2018-01-23T17:47:17.371Z,61.38
2018-01-23T17:49:48.524Z,61.36
2018-01-23T17:52:19.610Z,61.40
2018-01-23T17:54:50.724Z,61.36
2018-01-23T17:57:21.920Z,61.12
2018-01-23T17:59:52.990Z,61.15
2018-01-23T18:02:24.093Z,61.17
2018-01-23T18:04:55.144Z,61.20
2018-01-23T18:07:26.270Z,61.19
2018-01-23T18:09:57.393Z,61.26
2018-01-23T18:12:28.478Z,61.33
2018-01-23T18:14:59.547Z,61.27
2018-01-23T18:17:30.648Z,61.24
2018-01-23T18:20:01.744Z,61.34
2018-01-23T18:22:32.828Z,61.40
2018-01-23T18:25:03.916Z,61.41
2018-01-23T18:27:34.996Z,61.37
2018-01-23T18:30:06.117Z,61.42
2018-01-23T18:32:38.179Z,61.44
2018-01-23T18:35:09.320Z,61.51
2018-01-23T18:37:41.016Z,61.62
2018-01-23T18:40:12.095Z,61.69
2018-01-23T18:42:43.166Z,61.76
2018-01-23T18:45:14.259Z,61.80
2018-01-23T18:47:45.352Z,61.92
2018-01-23T18:50:16.474Z,62.12
2018-01-23T18:52:47.583Z,62.33
2018-01-23T18:55:18.680Z,62.67
2018-01-23T18:57:49.820Z,62.78
2018-01-23T19:00:20.928Z,62.97
2018-01-23T19:02:52.044Z,63.18
2018-01-23T19:05:23.138Z,63.18
2018-01-23T19:07:54.218Z,63.34
2018-01-23T19:10:25.311Z,63.50
2018-01-23T19:12:56.343Z,63.58
2018-01-23T19:15:27.473Z,63.65
2018-01-23T19:17:58.574Z,63.51
2018-01-23T19:20:29.695Z,63.32
2018-01-23T19:23:00.846Z,63.39
2018-01-23T19:25:32.445Z,63.27
2018-01-23T19:28:03.567Z,63.39
2018-01-23T19:30:34.650Z,63.46
2018-01-23T19:33:05.797Z,63.53
2018-01-23T19:35:36.882Z,63.59
2018-01-23T19:38:08.220Z,63.77
2018-01-23T19:40:39.356Z,63.90
2018-01-23T19:43:10.423Z,63.76
2018-01-23T19:45:41.518Z,63.40
2018-01-23T19:48:12.684Z,63.04
2018-01-23T19:50:43.740Z,62.67
2018-01-23T19:53:14.857Z,62.30
2018-01-23T19:55:47.024Z,62.00
2018-01-23T19:58:18.129Z,61.84
2018-01-23T20:00:49.239Z,61.72
2018-01-23T20:03:20.397Z,61.68
2018-01-23T20:05:51.556Z,61.55
2018-01-23T20:08:22.677Z,61.36
2018-01-23T20:10:53.769Z,61.11
2018-01-23T20:13:24.977Z,61.14
2018-01-23T20:15:56.053Z,61.00
2018-01-23T20:18:27.175Z,60.90
2018-01-23T20:20:58.256Z,60.78
2018-01-23T20:23:29.526Z,60.54
2018-01-23T20:26:00.619Z,60.46
2018-01-23T20:28:31.708Z,60.33
2018-01-23T20:31:02.823Z,60.32
2018-01-23T20:33:33.910Z,60.15
2018-01-23T20:36:05.089Z,59.99
2018-01-23T20:38:36.201Z,59.87
2018-01-23T20:41:07.304Z,59.75
2018-01-23T20:43:38.439Z,59.64
2018-01-23T20:46:09.509Z,59.36
2018-01-23T20:48:40.585Z,59.21
2018-01-23T20:51:11.672Z,59.19
2018-01-23T20:53:42.796Z,59.17
2018-01-23T20:56:13.863Z,59.21
2018-01-23T20:58:45.069Z,59.29
2018-01-23T21:01:16.210Z,59.42
2018-01-23T21:03:47.320Z,59.57
2018-01-23T21:06:18.403Z,59.56
2018-01-23T21:08:49.519Z,59.44
2018-01-23T21:11:20.596Z,59.84
2018-01-23T21:13:51.708Z,59.63
2018-01-23T21:16:22.781Z,59.56
2018-01-23T21:18:53.897Z,59.66
2018-01-23T21:21:25.014Z,59.38
2018-01-23T21:23:56.105Z,59.53
2018-01-23T21:26:27.255Z,59.57
2018-01-23T21:28:58.297Z,59.44
2018-01-23T21:31:29.399Z,59.47
2018-01-23T21:34:00.505Z,59.51
2018-01-23T21:36:31.717Z,59.35
2018-01-23T21:39:02.810Z,58.93
2018-01-23T21:41:33.956Z,58.63
2018-01-23T21:44:04.989Z,58.45
2018-01-23T21:46:36.047Z,58.50
2018-01-23T21:49:07.223Z,58.34
2018-01-23T21:51:38.284Z,58.17
2018-01-23T21:54:09.355Z,58.35
2018-01-23T21:56:40.461Z,58.40
2018-01-23T21:59:11.559Z,58.41
2018-01-23T22:01:42.802Z,58.30
2018-01-23T22:04:13.863Z,57.98
2018-01-23T22:06:44.965Z,58.28
2018-01-23T22:09:16.074Z,58.46
2018-01-23T22:11:47.333Z,58.65
2018-01-23T22:14:18.407Z,59.04
2018-01-23T22:16:49.543Z,59.87
2018-01-23T22:19:20.668Z,60.19
2018-01-23T22:21:51.762Z,60.38
2018-01-23T22:24:22.819Z,60.83
2018-01-23T22:26:53.864Z,61.10
2018-01-23T22:29:24.998Z,61.50
2018-01-23T22:31:56.066Z,62.32
2018-01-23T22:34:34.072Z,63.37
2018-01-23T22:37:05.185Z,63.59
2018-01-23T22:39:36.238Z,63.80
2018-01-23T22:42:07.314Z,63.83
2018-01-23T22:44:38.416Z,63.86
2018-01-23T22:47:09.583Z,64.20
2018-01-23T22:49:40.696Z,64.64
2018-01-23T22:52:11.763Z,64.94
2018-01-23T22:54:42.848Z,65.40
2018-01-23T22:57:13.913Z,65.69
2018-01-23T22:59:44.926Z,65.88
2018-01-23T23:02:16.024Z,66.04
2018-01-23T23:04:47.060Z,66.12
2018-01-23T23:07:18.182Z,66.06
2018-01-23T23:09:49.524Z,65.85
2018-01-23T23:12:20.652Z,65.38
2018-01-23T23:14:51.691Z,64.86
2018-01-23T23:17:22.764Z,64.38
2018-01-23T23:19:53.827Z,63.89
2018-01-23T23:22:24.920Z,63.46
2018-01-23T23:24:55.997Z,63.07
2018-01-23T23:27:27.092Z,62.80
2018-01-23T23:29:58.222Z,62.63
2018-01-23T23:32:29.299Z,62.61
2018-01-23T23:35:00.390Z,62.58
2018-01-23T23:37:31.490Z,62.43
2018-01-23T23:40:02.606Z,62.33
2018-01-23T23:42:33.690Z,62.20
2018-01-23T23:45:04.788Z,62.12
2018-01-23T23:47:35.828Z,62.24
2018-01-23T23:50:06.950Z,62.42
2018-01-23T23:52:38.093Z,62.54
2018-01-23T23:55:09.268Z,62.67
2018-01-23T23:57:40.810Z,62.79
